Terminal Aerodrome Forecast
Issued by NWS

Home | Current Version | Previous Version | Text Only | Print | Product List | Glossary On
Versions: 1 2 3 4 5 6 7 8 9 10 11 12 13 14 15
988
FTUS41 KPHI 300531
TAFPNE
TAF
KPNE 300531Z 3006/3106 13006KT P6SM OVC010
     FM300700 12006KT P6SM OVC008
      TEMPO 3009/3012 2SM -DZ BR OVC005
     FM301600 12006KT 5SM BR VCSH OVC008
     FM310000 14006KT 5SM BR OVC005 PROB30 3100/3104 2SM -SHRA
     FM310400 VRB03KT 2SM BR OVC003=

USA.gov is the U.S. government's official web portal to all federal, state and local government web resources and services.